createdAt,value
2023-04-18T00:02:17.366Z,9.82
2023-04-18T00:04:47.246Z,8.98
2023-04-18T00:07:16.929Z,9.15
2023-04-18T00:09:45.632Z,7.68
2023-04-18T00:12:15.496Z,9.35
2023-04-18T00:14:43.888Z,9.68
2023-04-18T00:17:13.491Z,7.53
2023-04-18T00:19:43.359Z,8.35
2023-04-18T00:22:11.813Z,7.45
2023-04-18T00:24:40.949Z,12.07
2023-04-18T00:27:09.295Z,9.02
2023-04-18T00:29:40.554Z,9.25
2023-04-18T00:32:09.145Z,8.63
2023-04-18T00:34:37.652Z,7.93
2023-04-18T00:37:05.935Z,8.20
2023-04-18T00:39:36.204Z,7.72
2023-04-18T00:42:04.864Z,7.03
2023-04-18T00:44:33.703Z,7.90
2023-04-18T00:47:03.457Z,7.47
2023-04-18T00:49:32.133Z,6.35
2023-04-18T00:52:01.368Z,6.72
2023-04-18T00:54:30.202Z,5.93
2023-04-18T00:56:58.589Z,6.63
2023-04-18T00:59:27.059Z,6.90
2023-04-18T01:01:55.644Z,6.43
2023-04-18T01:04:25.513Z,7.28
2023-04-18T01:06:54.387Z,6.72
2023-04-18T01:09:24.887Z,6.18
2023-04-18T01:11:53.303Z,5.15
2023-04-18T01:14:22.642Z,6.00
2023-04-18T01:16:51.082Z,8.75
2023-04-18T01:19:19.472Z,5.25
2023-04-18T01:21:49.091Z,5.55
2023-04-18T01:24:19.481Z,5.95
2023-04-18T01:26:48.639Z,6.05
2023-04-18T01:29:17.010Z,6.43
2023-04-18T01:31:46.090Z,5.00
2023-04-18T01:34:14.882Z,5.60
2023-04-18T01:36:43.454Z,4.50
2023-04-18T01:39:12.273Z,4.95
2023-04-18T01:41:43.363Z,6.03
2023-04-18T01:44:12.042Z,4.97
2023-04-18T01:46:40.958Z,4.15
2023-04-18T01:49:09.988Z,4.63
2023-04-18T01:51:39.906Z,4.68
2023-04-18T01:54:08.305Z,4.70
2023-04-18T01:56:36.693Z,3.75
2023-04-18T01:59:06.582Z,4.97
2023-04-18T02:01:34.977Z,4.10
2023-04-18T02:04:03.332Z,4.93
2023-04-18T02:06:31.881Z,4.30
2023-04-18T02:09:00.180Z,4.28
2023-04-18T02:11:28.566Z,4.10
2023-04-18T02:13:57.003Z,4.72
2023-04-18T02:16:26.768Z,3.92
2023-04-18T02:18:55.103Z,4.90
2023-04-18T02:21:24.453Z,4.15
2023-04-18T02:23:52.829Z,4.60
2023-04-18T02:26:21.185Z,3.95
2023-04-18T02:28:49.574Z,4.00
2023-04-18T02:31:18.537Z,5.60
2023-04-18T02:33:48.383Z,4.90
2023-04-18T02:36:16.831Z,4.93
2023-04-18T02:38:45.994Z,4.72
2023-04-18T02:41:17.543Z,5.32
2023-04-18T02:43:45.974Z,4.60
2023-04-18T02:46:14.513Z,4.45
2023-04-18T02:48:42.925Z,3.55
2023-04-18T02:51:12.658Z,5.07
2023-04-18T02:53:40.972Z,3.50
2023-04-18T02:56:09.641Z,4.55
2023-04-18T02:58:37.985Z,3.03
2023-04-18T03:01:06.547Z,3.50
2023-04-18T03:03:35.132Z,2.63
2023-04-18T03:06:03.621Z,2.97
2023-04-18T03:08:33.360Z,3.13
2023-04-18T03:11:01.876Z,3.65
2023-04-18T03:13:30.369Z,2.67
2023-04-18T03:15:58.959Z,3.80
2023-04-18T03:18:27.405Z,2.80
2023-04-18T03:20:55.690Z,3.38
2023-04-18T03:23:24.028Z,3.33
2023-04-18T03:25:53.868Z,3.58
2023-04-18T03:28:22.283Z,2.80
2023-04-18T03:30:50.771Z,2.75
2023-04-18T03:33:19.190Z,3.47
2023-04-18T03:35:47.613Z,3.53
2023-04-18T03:38:16.014Z,2.67
2023-04-18T03:40:44.591Z,3.40
2023-04-18T03:43:14.280Z,2.40
2023-04-18T03:45:44.144Z,2.65
2023-04-18T03:48:12.516Z,3.10
2023-04-18T03:50:41.038Z,3.10
2023-04-18T03:53:09.412Z,3.20
2023-04-18T03:55:37.860Z,2.97
2023-04-18T03:58:06.340Z,2.85
2023-04-18T04:00:36.070Z,3.13
2023-04-18T04:03:04.597Z,2.80
2023-04-18T04:05:33.156Z,2.83
2023-04-18T04:08:01.546Z,3.97
2023-04-18T04:10:30.012Z,3.70
2023-04-18T04:12:58.293Z,3.65
2023-04-18T04:15:26.736Z,3.33
2023-04-18T04:17:56.492Z,2.95
2023-04-18T04:20:25.858Z,4.25
2023-04-18T04:22:55.304Z,2.65
2023-04-18T04:25:24.634Z,8.75
2023-04-18T04:27:53.727Z,2.70
2023-04-18T04:30:22.790Z,2.65
2023-04-18T04:32:51.276Z,3.17
2023-04-18T04:35:21.121Z,3.20
2023-04-18T04:37:50.735Z,3.22
2023-04-18T04:40:19.272Z,2.63
2023-04-18T04:42:49.214Z,2.20
2023-04-18T04:45:18.095Z,2.75
2023-04-18T04:47:46.493Z,2.78
2023-04-18T04:50:16.316Z,2.50
2023-04-18T04:52:46.056Z,2.28
2023-04-18T04:55:14.445Z,3.20
2023-04-18T04:57:42.840Z,3.20
2023-04-18T05:00:13.801Z,2.63
2023-04-18T05:02:42.232Z,3.70
2023-04-18T05:05:10.842Z,4.60
2023-04-18T05:07:39.220Z,2.80
2023-04-18T05:10:10.205Z,2.42
2023-04-18T05:12:38.580Z,4.05
2023-04-18T05:15:08.411Z,3.65
2023-04-18T05:17:36.815Z,3.72
2023-04-18T05:20:06.206Z,2.90
2023-04-18T05:22:34.521Z,3.33
2023-04-18T05:25:03.017Z,2.53
2023-04-18T05:27:32.696Z,4.22
2023-04-18T05:30:01.036Z,4.90
2023-04-18T05:32:29.378Z,3.63
2023-04-18T05:34:57.812Z,4.07
2023-04-18T05:37:26.194Z,3.10
2023-04-18T05:39:54.471Z,4.95
2023-04-18T05:42:22.832Z,4.55
2023-04-18T05:44:52.576Z,4.70
2023-04-18T05:47:21.232Z,3.53
2023-04-18T05:49:49.606Z,5.35
2023-04-18T05:52:17.980Z,3.03
2023-04-18T05:54:46.261Z,4.07
2023-04-18T05:57:14.588Z,3.38
2023-04-18T05:59:42.935Z,3.78
2023-04-18T06:02:14.201Z,4.20
2023-04-18T06:04:43.936Z,3.05
2023-04-18T06:07:12.575Z,3.65
2023-04-18T06:09:40.878Z,3.78
2023-04-18T06:12:09.349Z,3.95
2023-04-18T06:14:37.711Z,3.28
2023-04-18T06:17:07.752Z,3.08
2023-04-18T06:19:37.596Z,2.67
2023-04-18T06:22:06.125Z,3.72
2023-04-18T06:24:34.526Z,3.05
2023-04-18T06:27:03.081Z,2.88
2023-04-18T06:29:33.318Z,3.20
2023-04-18T06:32:01.963Z,2.60
2023-04-18T06:34:30.438Z,2.67
2023-04-18T06:37:00.216Z,4.43
2023-04-18T06:39:28.912Z,4.15
2023-04-18T06:41:58.036Z,2.85
2023-04-18T06:44:26.455Z,1.95
2023-04-18T06:46:54.868Z,3.15
2023-04-18T06:49:26.431Z,3.38
2023-04-18T06:51:55.180Z,3.55
2023-04-18T06:54:25.061Z,4.55
2023-04-18T06:56:54.562Z,2.53
2023-04-18T06:59:23.416Z,3.35
2023-04-18T07:01:52.609Z,2.83
2023-04-18T07:04:21.330Z,3.05
2023-04-18T07:06:49.747Z,2.53
2023-04-18T07:09:18.120Z,2.55
2023-04-18T07:11:47.846Z,4.30
2023-04-18T07:14:16.498Z,3.03
2023-04-18T07:16:45.039Z,3.35
2023-04-18T07:19:13.598Z,3.47
2023-04-18T07:21:43.784Z,2.58
2023-04-18T07:24:13.531Z,4.68
2023-04-18T07:26:42.524Z,2.10
2023-04-18T07:29:12.324Z,4.38
2023-04-18T07:31:40.670Z,4.68
2023-04-18T07:34:09.190Z,3.05
2023-04-18T07:36:38.497Z,3.10
2023-04-18T07:39:06.954Z,4.35
2023-04-18T07:41:35.422Z,5.07
2023-04-18T07:44:04.128Z,4.85
2023-04-18T07:46:34.162Z,4.97
2023-04-18T07:49:03.637Z,9.57
2023-04-18T07:51:32.477Z,4.57
2023-04-18T07:54:01.395Z,4.15
2023-04-18T07:56:29.951Z,3.95
2023-04-18T07:58:58.303Z,4.00
2023-04-18T08:01:27.330Z,4.45
2023-04-18T08:03:57.963Z,11.50
2023-04-18T08:06:27.096Z,4.70
2023-04-18T08:08:55.635Z,4.72
2023-04-18T08:11:24.020Z,3.85
2023-04-18T08:13:52.400Z,3.75
2023-04-18T08:16:21.229Z,5.18
2023-04-18T08:18:49.645Z,6.22
2023-04-18T08:21:19.806Z,5.55
2023-04-18T08:23:48.281Z,4.05
2023-04-18T08:26:16.673Z,4.00
2023-04-18T08:28:46.596Z,6.05
2023-04-18T08:31:16.441Z,6.70
2023-04-18T08:33:44.891Z,9.18
2023-04-18T08:36:14.117Z,4.72
2023-04-18T08:38:43.895Z,4.95
2023-04-18T08:41:12.438Z,6.15
2023-04-18T08:43:40.859Z,4.88
2023-04-18T08:46:09.258Z,5.35
2023-04-18T08:48:38.121Z,5.32
2023-04-18T08:51:07.016Z,7.75
2023-04-18T08:53:35.631Z,6.07
2023-04-18T08:56:05.568Z,6.57
2023-04-18T08:58:35.001Z,5.45
2023-04-18T09:01:03.606Z,5.60
2023-04-18T09:03:40.743Z,6.00
2023-04-18T09:06:13.903Z,5.70
2023-04-18T09:08:44.545Z,7.43
2023-04-18T09:11:26.047Z,6.22
2023-04-18T09:13:56.414Z,9.60
2023-04-18T09:16:25.443Z,6.38
2023-04-18T09:19:14.911Z,5.45
2023-04-18T09:21:46.329Z,5.20
2023-04-18T09:24:21.120Z,4.25
2023-04-18T09:26:53.839Z,5.97
2023-04-18T09:29:23.628Z,6.32
2023-04-18T09:32:03.178Z,6.78
2023-04-18T09:34:34.201Z,6.50
2023-04-18T09:37:11.486Z,8.65
2023-04-18T09:39:41.686Z,6.18
2023-04-18T09:42:11.568Z,7.55
2023-04-18T09:44:58.511Z,6.05
2023-04-18T09:47:28.912Z,5.90
2023-04-18T09:49:57.472Z,5.70
2023-04-18T09:52:26.929Z,5.03
2023-04-18T09:55:00.853Z,6.63
2023-04-18T09:57:32.658Z,5.07
2023-04-18T10:00:10.661Z,5.78
2023-04-18T10:02:52.595Z,5.85
2023-04-18T10:05:27.387Z,6.68
2023-04-18T10:07:57.003Z,5.03
2023-04-18T10:10:26.376Z,5.28
2023-04-18T10:12:58.230Z,5.93
2023-04-18T10:15:29.234Z,5.68
2023-04-18T10:18:05.280Z,5.30
2023-04-18T10:20:35.983Z,4.85
2023-04-18T10:23:36.265Z,6.40
2023-04-18T10:26:05.595Z,6.15
2023-04-18T10:28:55.293Z,5.97
2023-04-18T10:31:24.681Z,6.22
2023-04-18T10:34:04.593Z,7.57
2023-04-18T10:36:34.663Z,6.20
2023-04-18T10:39:20.637Z,6.78
2023-04-18T10:41:51.559Z,7.55
2023-04-18T10:44:24.938Z,6.65
2023-04-18T10:47:24.683Z,5.75
2023-04-18T10:50:05.908Z,6.68
2023-04-18T10:52:35.916Z,11.35
2023-04-18T10:55:25.720Z,6.93
2023-04-18T10:57:56.528Z,7.75
2023-04-18T11:00:26.784Z,6.38
2023-04-18T11:02:57.914Z,6.75
2023-04-18T11:05:29.568Z,6.95
2023-04-18T11:07:58.002Z,5.95
2023-04-18T11:10:28.348Z,6.40
2023-04-18T11:12:59.300Z,6.90
2023-04-18T11:15:30.868Z,9.18
2023-04-18T11:18:02.613Z,7.05
2023-04-18T11:20:38.341Z,7.85
2023-04-18T11:23:19.739Z,5.63
2023-04-18T11:25:51.472Z,7.43
2023-04-18T11:28:22.162Z,8.43
2023-04-18T11:30:52.088Z,10.05
2023-04-18T11:33:20.605Z,12.93
2023-04-18T11:35:49.037Z,9.20
2023-04-18T11:38:18.630Z,7.63
2023-04-18T11:40:49.965Z,6.50
2023-04-18T11:43:22.965Z,7.18
2023-04-18T11:45:57.837Z,6.35
2023-04-18T11:48:35.013Z,13.07
2023-04-18T11:51:03.444Z,13.88
2023-04-18T11:53:35.574Z,7.47
2023-04-18T11:56:04.634Z,8.80
2023-04-18T11:58:33.656Z,6.55
2023-04-18T12:01:18.380Z,5.15
2023-04-18T12:04:02.388Z,5.30
2023-04-18T12:06:49.052Z,7.63
2023-04-18T12:09:18.455Z,6.13
2023-04-18T12:11:59.295Z,6.82
2023-04-18T12:14:28.744Z,6.95
2023-04-18T12:16:58.502Z,6.85
2023-04-18T12:19:28.744Z,5.88
2023-04-18T12:22:00.514Z,7.53
2023-04-18T12:24:29.899Z,7.10
2023-04-18T12:26:58.634Z,5.82
2023-04-18T12:29:28.426Z,5.20
2023-04-18T12:31:58.314Z,6.72
2023-04-18T12:34:26.679Z,6.28
2023-04-18T12:36:55.301Z,6.00
2023-04-18T12:39:23.633Z,6.32
2023-04-18T12:41:51.979Z,5.80
2023-04-18T12:44:20.926Z,6.15
2023-04-18T12:46:49.353Z,6.07
2023-04-18T12:49:19.066Z,7.30
2023-04-18T12:51:47.452Z,4.70
2023-04-18T12:54:16.090Z,6.22
2023-04-18T12:56:46.188Z,6.00
2023-04-18T12:59:14.756Z,5.55
2023-04-18T13:01:43.469Z,6.32
2023-04-18T13:04:13.160Z,8.75
2023-04-18T13:06:43.266Z,6.05
2023-04-18T13:09:12.140Z,6.75
2023-04-18T13:11:40.626Z,10.48
2023-04-18T13:14:09.046Z,6.70
2023-04-18T13:16:37.435Z,6.72
2023-04-18T13:19:05.904Z,6.38
2023-04-18T13:21:34.313Z,8.85
2023-04-18T13:24:04.175Z,7.05
2023-04-18T13:26:35.662Z,10.13
2023-04-18T13:29:04.639Z,6.78
2023-04-18T13:31:33.074Z,6.90
2023-04-18T13:34:01.479Z,7.85
2023-04-18T13:36:29.902Z,6.53
2023-04-18T13:38:58.693Z,8.88
2023-04-18T13:41:29.053Z,6.15
2023-04-18T13:43:57.484Z,6.18
2023-04-18T13:46:26.699Z,7.38
2023-04-18T13:48:55.335Z,7.00
2023-04-18T13:51:23.803Z,6.38
2023-04-18T13:53:52.424Z,6.05
2023-04-18T13:56:20.927Z,6.47
2023-04-18T13:58:51.093Z,7.43
2023-04-18T14:01:19.918Z,10.25
2023-04-18T14:03:48.554Z,7.53
2023-04-18T14:06:17.091Z,7.55
2023-04-18T14:08:45.501Z,8.50
2023-04-18T14:11:13.785Z,10.30
2023-04-18T14:13:42.242Z,6.88
2023-04-18T14:16:12.149Z,14.27
2023-04-18T14:18:40.857Z,6.15
2023-04-18T14:21:09.241Z,13.98
2023-04-18T14:23:37.642Z,6.50
2023-04-18T14:26:06.915Z,7.15
2023-04-18T14:28:35.398Z,8.35
2023-04-18T14:31:06.470Z,8.40
2023-04-18T14:33:36.367Z,7.90
2023-04-18T14:36:05.038Z,10.93
2023-04-18T14:38:33.492Z,7.57
2023-04-18T14:41:02.192Z,8.48
2023-04-18T14:43:30.619Z,7.35
2023-04-18T14:45:59.710Z,6.30
2023-04-18T14:48:28.690Z,10.63
2023-04-18T14:51:02.633Z,6.97
2023-04-18T14:53:31.162Z,7.45
2023-04-18T14:55:59.605Z,10.77
2023-04-18T14:58:27.864Z,10.77
2023-04-18T15:00:56.399Z,10.00
2023-04-18T15:03:24.933Z,8.07
2023-04-18T15:05:53.862Z,7.57
2023-04-18T15:08:23.747Z,10.45
2023-04-18T15:10:52.225Z,13.98
2023-04-18T15:13:20.703Z,9.20
2023-04-18T15:15:53.982Z,8.93
2023-04-18T15:18:22.323Z,13.68
2023-04-18T15:20:50.741Z,10.27
2023-04-18T15:23:19.152Z,10.18
2023-04-18T15:25:48.916Z,10.80
2023-04-18T15:28:18.662Z,9.77
2023-04-18T15:30:47.569Z,11.80
2023-04-18T15:33:17.981Z,10.18
2023-04-18T15:35:46.486Z,9.20
2023-04-18T15:38:15.064Z,11.80
2023-04-18T15:40:44.735Z,10.02
2023-04-18T15:43:17.133Z,10.32
2023-04-18T15:45:45.781Z,9.55
2023-04-18T15:48:14.216Z,10.45
2023-04-18T15:50:43.346Z,9.70
2023-04-18T15:53:11.747Z,12.75
2023-04-18T15:55:40.292Z,11.48
2023-04-18T15:58:08.681Z,12.30
2023-04-18T16:00:38.528Z,12.13
2023-04-18T16:03:09.887Z,12.40
2023-04-18T16:05:38.391Z,14.20
2023-04-18T16:08:09.057Z,13.40
2023-04-18T16:10:37.744Z,15.73
2023-04-18T16:13:06.776Z,14.02
2023-04-18T16:15:36.115Z,15.13
2023-04-18T16:18:06.021Z,13.43
2023-04-18T16:20:34.533Z,13.30
2023-04-18T16:23:03.108Z,11.48
2023-04-18T16:25:31.804Z,12.57
2023-04-18T16:28:00.251Z,11.38
2023-04-18T16:30:28.598Z,10.07
2023-04-18T16:32:57.123Z,11.10
2023-04-18T16:35:27.320Z,10.40
2023-04-18T16:37:55.713Z,12.98
2023-04-18T16:40:24.355Z,9.65
2023-04-18T16:42:52.836Z,11.48
2023-04-18T16:45:21.885Z,10.05
2023-04-18T16:47:50.925Z,11.70
2023-04-18T16:50:19.927Z,11.57
2023-04-18T16:52:50.026Z,11.43
2023-04-18T16:55:18.858Z,10.25
2023-04-18T16:57:47.881Z,11.43
2023-04-18T17:00:16.939Z,14.07
2023-04-18T17:02:47.319Z,13.25
2023-04-18T17:05:16.270Z,11.88
2023-04-18T17:07:47.896Z,10.98
2023-04-18T17:10:18.302Z,11.55
2023-04-18T17:12:49.191Z,12.23
2023-04-18T17:15:20.259Z,14.13
2023-04-18T17:17:48.902Z,13.90
2023-04-18T17:20:18.051Z,13.07
2023-04-18T17:22:46.895Z,13.02
2023-04-18T17:25:15.560Z,14.38
2023-04-18T17:27:45.821Z,13.77
2023-04-18T17:30:15.280Z,18.27
2023-04-18T17:32:46.313Z,19.83
2023-04-18T17:35:15.729Z,21.83
2023-04-18T17:37:44.843Z,15.93
2023-04-18T17:40:15.815Z,14.52
2023-04-18T17:42:45.978Z,13.27
2023-04-18T17:45:15.010Z,12.23
2023-04-18T17:47:44.461Z,12.63
2023-04-18T17:50:13.661Z,14.60
2023-04-18T17:52:42.222Z,18.48
2023-04-18T17:55:12.109Z,26.70
2023-04-18T17:57:42.334Z,24.42
2023-04-18T18:00:16.871Z,17.92
2023-04-18T18:02:47.917Z,17.45
2023-04-18T18:05:17.831Z,14.70
2023-04-18T18:07:49.114Z,13.30
2023-04-18T18:10:22.921Z,13.82
2023-04-18T18:12:53.733Z,12.35
2023-04-18T18:15:24.906Z,12.52
2023-04-18T18:17:55.532Z,12.57
2023-04-18T18:20:29.170Z,12.75
2023-04-18T18:22:59.939Z,12.48
2023-04-18T18:25:31.651Z,11.27
2023-04-18T18:28:02.653Z,11.05
2023-04-18T18:30:34.401Z,10.52
2023-04-18T18:33:04.204Z,10.00
2023-04-18T18:35:34.405Z,11.93
2023-04-18T18:38:04.703Z,12.35
2023-04-18T18:40:34.535Z,11.60
2023-04-18T18:43:05.423Z,13.45
2023-04-18T18:45:36.618Z,9.57
2023-04-18T18:48:08.042Z,12.68
2023-04-18T18:50:43.084Z,11.68
2023-04-18T18:53:17.307Z,10.15
2023-04-18T18:55:47.167Z,10.25
2023-04-18T18:58:16.080Z,10.43
2023-04-18T19:00:49.430Z,14.68
2023-04-18T19:03:22.270Z,9.68
2023-04-18T19:05:57.073Z,8.20
2023-04-18T19:08:30.386Z,9.95
2023-04-18T19:11:02.508Z,9.27
2023-04-18T19:13:33.542Z,10.70
2023-04-18T19:16:04.872Z,9.27
2023-04-18T19:18:36.216Z,10.88
2023-04-18T19:21:05.744Z,12.38
2023-04-18T19:23:37.342Z,9.93
2023-04-18T19:26:08.001Z,10.45
2023-04-18T19:28:38.225Z,11.23
2023-04-18T19:31:10.129Z,10.10
2023-04-18T19:33:41.865Z,9.07
2023-04-18T19:36:11.703Z,8.55
2023-04-18T19:38:42.080Z,9.00
2023-04-18T19:41:11.969Z,9.15
2023-04-18T19:43:43.217Z,8.70
2023-04-18T19:46:21.748Z,9.43
2023-04-18T19:48:51.538Z,10.02
2023-04-18T19:51:21.914Z,10.60
2023-04-18T19:53:51.320Z,8.25
2023-04-18T19:56:20.574Z,8.80
2023-04-18T19:58:49.841Z,10.20
2023-04-18T20:01:24.903Z,10.20
2023-04-18T20:03:59.106Z,8.07
2023-04-18T20:06:29.180Z,10.00
2023-04-18T20:08:59.149Z,16.45
2023-04-18T20:11:29.363Z,9.15
2023-04-18T20:13:58.834Z,9.75
2023-04-18T20:16:29.020Z,9.68
2023-04-18T20:18:58.428Z,10.20
2023-04-18T20:21:28.079Z,8.95
2023-04-18T20:24:00.258Z,12.90
2023-04-18T20:26:28.760Z,9.27
2023-04-18T20:28:57.567Z,9.02
2023-04-18T20:31:29.464Z,10.30
2023-04-18T20:33:58.681Z,10.20
2023-04-18T20:36:29.337Z,12.48
2023-04-18T20:38:58.796Z,10.77
2023-04-18T20:41:29.836Z,9.35
2023-04-18T20:43:59.991Z,8.23
2023-04-18T20:46:30.704Z,8.13
2023-04-18T20:49:00.953Z,10.35
2023-04-18T20:51:29.897Z,9.30
2023-04-18T20:53:58.368Z,8.70
2023-04-18T20:56:26.790Z,8.68
2023-04-18T20:58:55.445Z,9.95
2023-04-18T21:01:24.378Z,9.95
2023-04-18T21:03:54.384Z,7.80
2023-04-18T21:06:23.050Z,8.68
2023-04-18T21:08:51.438Z,10.05
2023-04-18T21:11:19.837Z,12.02
2023-04-18T21:13:48.208Z,9.43
2023-04-18T21:16:16.633Z,9.43
2023-04-18T21:18:45.054Z,8.88
2023-04-18T21:21:14.868Z,8.45
2023-04-18T21:23:44.055Z,9.20
2023-04-18T21:26:14.108Z,9.07
2023-04-18T21:29:00.085Z,8.02
2023-04-18T21:31:32.911Z,7.97
2023-04-18T21:34:03.098Z,8.55
2023-04-18T21:36:33.563Z,10.45
2023-04-18T21:39:02.323Z,9.15
2023-04-18T21:41:30.839Z,8.50
2023-04-18T21:43:59.183Z,11.13
2023-04-18T21:46:27.713Z,8.88
2023-04-18T21:48:56.115Z,9.95
2023-04-18T21:51:24.516Z,9.52
2023-04-18T21:53:54.288Z,10.93
2023-04-18T21:56:22.659Z,8.95
2023-04-18T21:58:51.071Z,8.82
2023-04-18T22:01:19.521Z,12.57
2023-04-18T22:03:48.068Z,11.25
2023-04-18T22:06:17.208Z,8.88
2023-04-18T22:08:45.658Z,10.27
2023-04-18T22:11:15.809Z,10.68
2023-04-18T22:13:44.905Z,8.98
2023-04-18T22:16:13.528Z,10.60
2023-04-18T22:18:41.892Z,9.93
2023-04-18T22:21:10.627Z,9.35
2023-04-18T22:23:38.991Z,10.68
2023-04-18T22:26:07.576Z,10.52
2023-04-18T22:28:37.347Z,9.93
2023-04-18T22:31:06.272Z,10.35
2023-04-18T22:33:34.684Z,9.35
2023-04-18T22:36:03.101Z,10.88
2023-04-18T22:38:31.540Z,9.40
2023-04-18T22:41:00.845Z,9.93
2023-04-18T22:43:29.301Z,10.63
2023-04-18T22:45:59.130Z,9.95
2023-04-18T22:48:27.525Z,9.60
2023-04-18T22:50:55.855Z,10.20
2023-04-18T22:53:24.540Z,9.93
2023-04-18T22:55:52.916Z,11.68
2023-04-18T22:58:21.370Z,9.30
2023-04-18T23:00:49.703Z,10.00
2023-04-18T23:03:19.701Z,9.85
2023-04-18T23:05:48.117Z,9.02
2023-04-18T23:08:18.752Z,8.63
2023-04-18T23:10:47.178Z,10.25
2023-04-18T23:13:15.638Z,11.88
2023-04-18T23:15:44.060Z,8.90
2023-04-18T23:18:12.692Z,10.18
2023-04-18T23:20:42.431Z,9.50
2023-04-18T23:23:10.807Z,9.77
2023-04-18T23:25:39.312Z,9.23
2023-04-18T23:28:07.967Z,8.90
2023-04-18T23:30:37.904Z,11.63
2023-04-18T23:33:06.645Z,8.32
2023-04-18T23:35:35.169Z,8.98
2023-04-18T23:38:04.879Z,11.70
2023-04-18T23:40:33.313Z,9.27
2023-04-18T23:43:02.310Z,10.10
2023-04-18T23:45:31.105Z,8.93
2023-04-18T23:47:59.495Z,10.23
2023-04-18T23:50:28.006Z,9.80
2023-04-18T23:52:56.428Z,10.38
2023-04-18T23:55:26.200Z,8.90
2023-04-18T23:57:54.566Z,10.75
